createdAt,value
2019-03-27T00:02:23.778Z,5.50
2019-03-27T00:04:53.667Z,5.60
2019-03-27T00:07:23.479Z,5.60
2019-03-27T00:09:53.322Z,5.70
2019-03-27T00:12:23.168Z,5.80
2019-03-27T00:14:53.122Z,5.80
2019-03-27T00:17:22.949Z,5.90
2019-03-27T00:19:52.803Z,6.00
2019-03-27T00:22:22.634Z,6.20
2019-03-27T00:24:52.471Z,6.40
2019-03-27T00:27:22.287Z,6.50
2019-03-27T00:29:52.110Z,6.60
2019-03-27T00:32:21.933Z,6.80
2019-03-27T00:34:51.765Z,6.90
2019-03-27T00:37:21.597Z,7.00
2019-03-27T00:39:51.446Z,7.10
2019-03-27T00:42:21.270Z,7.10
2019-03-27T00:44:51.136Z,7.20
2019-03-27T00:47:20.999Z,7.20
2019-03-27T00:49:50.841Z,7.30
2019-03-27T00:52:20.733Z,7.20
2019-03-27T00:54:50.571Z,7.10
2019-03-27T00:57:20.399Z,7.00
2019-03-27T00:59:50.228Z,6.90
2019-03-27T01:02:20.095Z,6.80
2019-03-27T01:04:49.958Z,6.80
2019-03-27T01:07:20.033Z,6.70
2019-03-27T01:10:08.654Z,6.70
2019-03-27T01:12:57.258Z,6.80
2019-03-27T01:15:39.216Z,6.80
2019-03-27T01:17:58.683Z,6.70
2019-03-27T01:20:28.545Z,6.60
2019-03-27T01:22:58.375Z,6.60
2019-03-27T01:25:28.267Z,6.70
2019-03-27T01:27:58.186Z,6.70
2019-03-27T01:30:28.007Z,6.70
2019-03-27T01:32:57.861Z,6.80
2019-03-27T01:35:27.709Z,6.80
2019-03-27T01:37:57.559Z,6.60
2019-03-27T01:40:27.407Z,6.60
2019-03-27T01:42:57.243Z,6.60
2019-03-27T01:45:27.121Z,6.70
2019-03-27T01:47:56.967Z,6.80
2019-03-27T01:50:26.812Z,7.00
2019-03-27T01:52:56.644Z,7.10
2019-03-27T01:55:26.544Z,7.20
2019-03-27T01:57:56.531Z,7.20
2019-03-27T02:00:26.388Z,7.30
2019-03-27T02:02:56.298Z,7.30
2019-03-27T02:05:26.130Z,7.30
2019-03-27T02:08:14.701Z,7.30
2019-03-27T02:10:44.496Z,7.40
2019-03-27T02:13:14.250Z,7.40
2019-03-27T02:15:44.063Z,7.50
2019-03-27T02:18:13.818Z,7.50
2019-03-27T02:20:43.895Z,7.50
2019-03-27T02:23:13.678Z,7.50
2019-03-27T02:25:43.455Z,7.60
2019-03-27T02:28:13.252Z,7.50
2019-03-27T02:30:43.033Z,7.60
2019-03-27T02:33:12.741Z,7.60
2019-03-27T02:35:42.539Z,7.60
2019-03-27T02:38:12.299Z,7.60
2019-03-27T02:40:42.082Z,7.60
2019-03-27T02:43:11.881Z,7.50
2019-03-27T02:45:41.628Z,7.50
2019-03-27T02:48:13.984Z,7.50
2019-03-27T02:50:42.974Z,7.50
2019-03-27T02:53:12.725Z,7.50
2019-03-27T02:55:42.531Z,7.50
2019-03-27T02:58:12.301Z,7.50
2019-03-27T03:00:42.115Z,7.60
2019-03-27T03:03:30.662Z,7.60
2019-03-27T03:06:00.435Z,7.70
2019-03-27T03:08:30.194Z,7.70
2019-03-27T03:10:59.903Z,7.70
2019-03-27T03:13:29.674Z,7.80
2019-03-27T03:15:59.469Z,7.80
2019-03-27T03:18:29.334Z,7.80
2019-03-27T03:20:59.032Z,7.80
2019-03-27T03:23:28.807Z,7.80
2019-03-27T03:25:58.502Z,7.80
2019-03-27T03:28:28.282Z,7.80
2019-03-27T03:30:58.041Z,7.80
2019-03-27T03:33:27.745Z,7.90
2019-03-27T03:35:57.506Z,7.90
2019-03-27T03:38:27.230Z,7.90
2019-03-27T03:40:57.017Z,7.90
2019-03-27T03:43:26.796Z,7.80
2019-03-27T03:45:56.664Z,7.80
2019-03-27T03:48:26.378Z,7.70
2019-03-27T03:50:59.639Z,7.70
2019-03-27T03:53:31.520Z,7.60
2019-03-27T03:56:02.193Z,7.50
2019-03-27T03:58:33.450Z,7.40
2019-03-27T04:01:03.870Z,7.40
2019-03-27T04:03:35.880Z,7.50
2019-03-27T04:06:05.784Z,7.50
2019-03-27T04:08:35.464Z,7.50
2019-03-27T04:11:05.157Z,7.30
2019-03-27T04:13:34.953Z,7.20
2019-03-27T04:16:04.679Z,7.20
2019-03-27T04:18:34.509Z,7.10
2019-03-27T04:21:04.326Z,7.20
2019-03-27T04:23:34.105Z,7.20
2019-03-27T04:26:10.064Z,7.20
2019-03-27T04:28:35.436Z,7.30
2019-03-27T04:31:05.346Z,7.30
2019-03-27T04:33:35.126Z,7.30
2019-03-27T04:36:04.833Z,7.30
2019-03-27T04:38:34.605Z,7.30
2019-03-27T04:41:04.411Z,7.20
2019-03-27T04:43:34.172Z,7.20
2019-03-27T04:46:03.943Z,7.10
2019-03-27T04:48:33.641Z,7.20
2019-03-27T04:51:03.428Z,7.20
2019-03-27T04:53:33.189Z,7.30
2019-03-27T04:56:03.033Z,7.40
2019-03-27T04:58:32.882Z,7.40
2019-03-27T05:01:02.669Z,7.50
2019-03-27T05:03:32.460Z,7.50
2019-03-27T05:06:02.187Z,7.50
2019-03-27T05:08:31.982Z,7.60
2019-03-27T05:11:01.773Z,7.60
2019-03-27T05:13:31.517Z,7.60
2019-03-27T05:16:01.386Z,7.60
2019-03-27T05:18:31.101Z,7.50
2019-03-27T05:21:00.866Z,7.50
2019-03-27T05:23:30.646Z,7.40
2019-03-27T05:26:00.459Z,7.30
2019-03-27T05:28:30.160Z,7.30
2019-03-27T05:30:59.888Z,7.40
2019-03-27T05:33:32.588Z,7.50
2019-03-27T05:36:01.034Z,7.50
2019-03-27T05:38:30.746Z,7.50
2019-03-27T05:41:01.538Z,7.50
2019-03-27T05:43:31.253Z,7.50
2019-03-27T05:46:01.047Z,7.50
2019-03-27T05:48:30.850Z,7.40
2019-03-27T05:51:00.591Z,7.40
2019-03-27T05:53:30.381Z,7.30
2019-03-27T05:56:00.167Z,7.20
2019-03-27T05:58:29.968Z,7.20
2019-03-27T06:00:59.770Z,7.20
2019-03-27T06:03:29.561Z,7.30
2019-03-27T06:05:59.270Z,7.30
2019-03-27T06:08:28.998Z,7.40
2019-03-27T06:10:58.798Z,7.40
2019-03-27T06:13:28.595Z,7.50
2019-03-27T06:15:58.383Z,7.50
2019-03-27T06:18:28.186Z,7.50
2019-03-27T06:20:57.963Z,7.60
2019-03-27T06:23:28.097Z,7.60
2019-03-27T06:25:57.865Z,7.60
2019-03-27T06:28:27.673Z,7.70
2019-03-27T06:30:57.361Z,7.70
2019-03-27T06:33:27.146Z,7.70
2019-03-27T06:35:56.933Z,7.70
2019-03-27T06:38:26.730Z,7.70
2019-03-27T06:40:56.427Z,7.80
2019-03-27T06:43:26.569Z,7.80
2019-03-27T06:45:58.404Z,7.90
2019-03-27T06:48:27.774Z,7.90
2019-03-27T06:50:57.558Z,8.00
2019-03-27T06:53:27.435Z,8.00
2019-03-27T06:55:57.205Z,8.00
2019-03-27T06:58:27.003Z,8.00
2019-03-27T07:00:56.785Z,8.10
2019-03-27T07:03:26.562Z,8.10
2019-03-27T07:05:56.298Z,8.10
2019-03-27T07:08:25.998Z,8.10
2019-03-27T07:10:55.709Z,8.20
2019-03-27T07:13:25.477Z,8.20
2019-03-27T07:15:55.237Z,8.30
2019-03-27T07:18:25.033Z,8.40
2019-03-27T07:20:54.792Z,8.40
2019-03-27T07:23:24.654Z,8.40
2019-03-27T07:25:54.430Z,8.40
2019-03-27T07:28:24.155Z,8.50
2019-03-27T07:30:53.944Z,8.50
2019-03-27T07:33:23.672Z,8.60
2019-03-27T07:35:53.493Z,8.60
2019-03-27T07:38:23.272Z,8.70
2019-03-27T07:40:53.038Z,8.70
2019-03-27T07:43:22.845Z,8.80
2019-03-27T07:45:52.552Z,8.80
2019-03-27T07:48:22.342Z,8.80
2019-03-27T07:50:52.150Z,8.80
2019-03-27T07:53:22.579Z,8.80
2019-03-27T07:55:52.544Z,8.80
2019-03-27T07:58:22.238Z,8.90
2019-03-27T08:00:52.023Z,8.90
2019-03-27T08:03:21.755Z,8.90
2019-03-27T08:05:51.542Z,8.90
2019-03-27T08:08:21.334Z,8.90
2019-03-27T08:10:51.145Z,9.00
2019-03-27T08:13:20.935Z,9.10
2019-03-27T08:15:50.706Z,9.20
2019-03-27T08:18:20.521Z,9.30
2019-03-27T08:20:50.295Z,9.40
2019-03-27T08:23:20.085Z,9.40
2019-03-27T08:25:49.880Z,9.50
2019-03-27T08:28:19.701Z,9.50
2019-03-27T08:30:49.388Z,9.50
2019-03-27T08:33:19.197Z,9.60
2019-03-27T08:35:48.974Z,9.50
2019-03-27T08:38:18.786Z,9.60
2019-03-27T08:40:48.490Z,9.70
2019-03-27T08:43:21.439Z,9.80
2019-03-27T08:45:49.697Z,9.80
2019-03-27T08:48:19.423Z,9.90
2019-03-27T08:50:49.193Z,9.90
2019-03-27T08:53:18.992Z,10.00
2019-03-27T08:55:48.817Z,10.00
2019-03-27T08:58:18.622Z,10.00
2019-03-27T09:00:52.999Z,10.00
2019-03-27T09:03:22.790Z,10.00
2019-03-27T09:05:52.524Z,10.00
2019-03-27T09:08:22.301Z,10.00
2019-03-27T09:10:52.079Z,10.00
2019-03-27T09:13:21.818Z,10.00
2019-03-27T09:15:51.521Z,10.00
2019-03-27T09:18:21.336Z,10.00
2019-03-27T09:20:51.119Z,10.00
2019-03-27T09:23:20.934Z,10.00
2019-03-27T09:25:50.697Z,10.00
2019-03-27T09:28:20.514Z,10.00
2019-03-27T09:30:50.292Z,9.90
2019-03-27T09:33:20.088Z,10.00
2019-03-27T09:35:49.866Z,10.00
2019-03-27T09:38:19.704Z,10.00
2019-03-27T09:40:49.493Z,10.10
2019-03-27T09:43:19.278Z,10.00
2019-03-27T09:45:49.078Z,9.90
2019-03-27T09:48:18.862Z,10.00
2019-03-27T09:50:48.755Z,10.10
2019-03-27T09:53:18.574Z,10.30
2019-03-27T09:55:48.273Z,10.40
2019-03-27T09:58:18.072Z,10.50
2019-03-27T10:01:09.433Z,10.60
2019-03-27T10:03:39.277Z,10.70
2019-03-27T10:06:09.085Z,10.80
2019-03-27T10:08:38.897Z,10.80
2019-03-27T10:11:08.685Z,10.70
2019-03-27T10:13:38.469Z,10.80
2019-03-27T10:16:08.352Z,10.90
2019-03-27T10:18:38.074Z,10.90
2019-03-27T10:21:07.882Z,10.90
2019-03-27T10:23:37.670Z,10.80
2019-03-27T10:26:07.505Z,10.90
2019-03-27T10:28:37.306Z,10.90
2019-03-27T10:31:07.080Z,10.90
2019-03-27T10:33:36.834Z,10.90
2019-03-27T10:36:06.627Z,10.80
2019-03-27T10:38:36.466Z,10.80
2019-03-27T10:41:06.337Z,10.90
2019-03-27T10:43:36.159Z,10.90
2019-03-27T10:46:05.947Z,11.00
2019-03-27T10:48:35.722Z,11.10
2019-03-27T10:51:05.513Z,11.20
2019-03-27T10:53:35.332Z,11.30
2019-03-27T10:56:05.126Z,11.40
2019-03-27T10:58:34.960Z,11.50
2019-03-27T11:01:07.212Z,11.50
2019-03-27T11:03:36.190Z,11.50
2019-03-27T11:06:05.987Z,11.60
2019-03-27T11:08:35.791Z,11.60
2019-03-27T11:11:05.599Z,11.80
2019-03-27T11:13:35.414Z,11.90
2019-03-27T11:16:05.198Z,11.90
2019-03-27T11:18:34.930Z,12.10
2019-03-27T11:21:04.651Z,12.10
2019-03-27T11:23:34.425Z,12.20
2019-03-27T11:26:04.204Z,12.10
2019-03-27T11:28:33.919Z,12.10
2019-03-27T11:31:03.728Z,12.10
2019-03-27T11:33:36.695Z,12.10
2019-03-27T11:36:06.508Z,11.90
2019-03-27T11:38:37.724Z,11.90
2019-03-27T11:41:07.772Z,11.90
2019-03-27T11:43:37.574Z,11.90
2019-03-27T11:46:07.286Z,11.90
2019-03-27T11:48:37.168Z,11.90
2019-03-27T11:51:09.835Z,11.80
2019-03-27T11:53:39.563Z,11.80
2019-03-27T11:56:09.342Z,11.90
2019-03-27T11:58:39.154Z,11.90
2019-03-27T12:01:08.959Z,11.80
2019-03-27T12:03:38.749Z,11.80
2019-03-27T12:06:08.558Z,11.70
2019-03-27T12:08:38.362Z,11.80
2019-03-27T12:11:08.129Z,11.90
2019-03-27T12:13:37.955Z,12.00
2019-03-27T12:16:07.856Z,12.00
2019-03-27T12:18:37.578Z,12.10
2019-03-27T12:21:07.309Z,12.20
2019-03-27T12:23:37.113Z,12.30
2019-03-27T12:26:06.898Z,12.30
2019-03-27T12:28:36.692Z,12.30
2019-03-27T12:31:07.425Z,12.30
2019-03-27T12:33:37.207Z,12.30
2019-03-27T12:36:07.001Z,12.40
2019-03-27T12:38:36.794Z,12.40
2019-03-27T12:41:06.578Z,12.50
2019-03-27T12:43:36.381Z,12.50
2019-03-27T12:46:06.174Z,12.60
2019-03-27T12:48:35.968Z,12.60
2019-03-27T12:51:12.585Z,12.50
2019-03-27T12:53:37.154Z,12.50
2019-03-27T12:56:06.988Z,12.50
2019-03-27T12:58:36.795Z,12.40
2019-03-27T13:01:07.963Z,12.50
2019-03-27T13:03:37.816Z,12.50
2019-03-27T13:06:07.539Z,12.50
2019-03-27T13:08:37.258Z,12.50
2019-03-27T13:11:07.068Z,12.50
2019-03-27T13:13:36.872Z,12.60
2019-03-27T13:16:06.673Z,12.70
2019-03-27T13:18:36.482Z,12.70
2019-03-27T13:21:06.265Z,12.70
2019-03-27T13:23:36.001Z,12.60
2019-03-27T13:26:05.793Z,12.60
2019-03-27T13:28:48.251Z,12.60
2019-03-27T13:31:07.114Z,12.40
2019-03-27T13:33:36.897Z,12.50
2019-03-27T13:36:08.097Z,12.60
2019-03-27T13:38:37.902Z,12.60
2019-03-27T13:41:07.660Z,12.70
2019-03-27T13:43:37.367Z,12.80
2019-03-27T13:46:07.150Z,12.90
2019-03-27T13:48:36.942Z,12.90
2019-03-27T13:51:06.709Z,13.00
2019-03-27T13:53:36.615Z,12.90
2019-03-27T13:56:06.375Z,13.00
2019-03-27T13:58:36.184Z,13.00
2019-03-27T14:01:08.798Z,12.90
2019-03-27T14:03:37.483Z,12.90
2019-03-27T14:06:07.306Z,12.90
2019-03-27T14:08:37.194Z,12.90
2019-03-27T14:11:06.921Z,12.80
2019-03-27T14:13:36.720Z,12.90
2019-03-27T14:16:06.535Z,12.80
2019-03-27T14:18:36.250Z,12.80
2019-03-27T14:21:06.049Z,12.90
2019-03-27T14:23:35.760Z,12.90
2019-03-27T14:26:05.610Z,13.00
2019-03-27T14:28:35.432Z,13.20
2019-03-27T14:31:05.249Z,13.30
2019-03-27T14:33:35.038Z,13.50
2019-03-27T14:36:04.772Z,13.60
2019-03-27T14:38:34.585Z,13.80
2019-03-27T14:41:04.392Z,13.90
2019-03-27T14:43:34.203Z,14.10
2019-03-27T14:46:04.002Z,14.20
2019-03-27T14:48:33.749Z,14.20
2019-03-27T14:51:03.470Z,14.10
2019-03-27T14:53:33.253Z,13.70
2019-03-27T14:56:03.148Z,13.50
2019-03-27T14:58:32.854Z,13.60
2019-03-27T15:01:02.677Z,13.80
2019-03-27T15:03:32.490Z,13.90
2019-03-27T15:06:02.267Z,14.00
2019-03-27T15:08:32.068Z,14.10
2019-03-27T15:11:01.799Z,14.20
2019-03-27T15:13:31.567Z,14.40
2019-03-27T15:16:01.361Z,14.50
2019-03-27T15:18:31.135Z,14.60
2019-03-27T15:21:00.953Z,14.70
2019-03-27T15:23:30.726Z,14.80
2019-03-27T15:26:00.536Z,14.90
2019-03-27T15:28:30.429Z,15.00
2019-03-27T15:31:00.159Z,15.00
2019-03-27T15:33:29.963Z,15.10
2019-03-27T15:35:59.785Z,14.90
2019-03-27T15:38:29.552Z,14.60
2019-03-27T15:40:59.341Z,14.50
2019-03-27T15:43:29.117Z,14.50
2019-03-27T15:45:58.969Z,14.50
2019-03-27T15:48:28.794Z,14.50
2019-03-27T15:50:59.032Z,14.30
2019-03-27T15:53:28.995Z,14.10
2019-03-27T15:55:58.809Z,14.00
2019-03-27T15:58:28.612Z,13.80
2019-03-27T16:00:58.458Z,13.70
2019-03-27T16:03:28.261Z,13.60
2019-03-27T16:05:58.043Z,13.50
2019-03-27T16:08:28.865Z,13.50
2019-03-27T16:10:58.949Z,13.40
2019-03-27T16:13:28.928Z,13.40
2019-03-27T16:15:58.933Z,13.30
2019-03-27T16:18:28.929Z,13.30
2019-03-27T16:21:01.980Z,13.30
2019-03-27T16:23:32.401Z,13.20
2019-03-27T16:26:02.576Z,13.10
2019-03-27T16:28:32.604Z,13.00
2019-03-27T16:31:02.649Z,13.00
2019-03-27T16:33:32.694Z,13.00
2019-03-27T16:36:03.034Z,12.90
2019-03-27T16:38:33.076Z,12.90
2019-03-27T16:41:03.387Z,12.90
2019-03-27T16:43:33.450Z,12.80
2019-03-27T16:46:03.583Z,12.70
2019-03-27T16:48:33.549Z,12.50
2019-03-27T16:51:03.382Z,12.50
2019-03-27T16:53:33.171Z,12.40
2019-03-27T16:56:03.017Z,12.40
2019-03-27T16:58:33.121Z,12.40
2019-03-27T17:01:02.895Z,12.30
2019-03-27T17:03:32.733Z,12.20
2019-03-27T17:06:02.531Z,12.20
2019-03-27T17:08:32.368Z,12.20
2019-03-27T17:11:02.181Z,12.20
2019-03-27T17:13:32.086Z,12.20
2019-03-27T17:16:01.926Z,12.20
2019-03-27T17:18:31.769Z,12.10
2019-03-27T17:21:01.569Z,12.10
2019-03-27T17:23:31.402Z,12.10
2019-03-27T17:26:01.315Z,12.10
2019-03-27T17:28:31.195Z,12.10
2019-03-27T17:31:01.109Z,12.10
2019-03-27T17:33:30.956Z,12.10
2019-03-27T17:36:01.073Z,12.10
2019-03-27T17:38:30.910Z,12.10
2019-03-27T17:41:00.703Z,12.10
2019-03-27T17:43:30.461Z,12.10
2019-03-27T17:46:00.252Z,12.10
2019-03-27T17:48:30.088Z,12.10
2019-03-27T17:50:59.897Z,12.10
2019-03-27T17:53:31.883Z,12.10
2019-03-27T17:56:01.309Z,12.00
2019-03-27T17:58:31.061Z,12.10
2019-03-27T18:01:03.513Z,12.00
2019-03-27T18:03:33.732Z,12.00
2019-03-27T18:06:04.446Z,12.00
2019-03-27T18:08:35.015Z,12.00
2019-03-27T18:11:07.975Z,11.90
2019-03-27T18:13:36.742Z,11.90
2019-03-27T18:16:06.602Z,11.80
2019-03-27T18:18:36.324Z,11.80
2019-03-27T18:21:06.201Z,11.80
2019-03-27T18:23:45.832Z,11.80
2019-03-27T18:26:07.444Z,11.80
2019-03-27T18:28:37.473Z,11.80
2019-03-27T18:31:07.295Z,11.80
2019-03-27T18:33:37.095Z,11.70
2019-03-27T18:36:06.820Z,11.70
2019-03-27T18:38:36.742Z,11.70
2019-03-27T18:41:06.522Z,11.70
2019-03-27T18:43:36.258Z,11.70
2019-03-27T18:46:06.059Z,11.70
2019-03-27T18:48:35.866Z,11.70
2019-03-27T18:51:05.732Z,11.70
2019-03-27T18:53:35.528Z,11.70
2019-03-27T18:56:05.626Z,11.70
2019-03-27T18:58:35.454Z,11.60
2019-03-27T19:01:05.517Z,11.60
2019-03-27T19:03:35.691Z,11.60
2019-03-27T19:06:05.800Z,11.60
2019-03-27T19:08:35.904Z,11.50
2019-03-27T19:11:05.913Z,11.50
2019-03-27T19:13:35.931Z,11.40
2019-03-27T19:16:06.153Z,11.50
2019-03-27T19:18:36.125Z,11.40
2019-03-27T19:21:05.995Z,11.40
2019-03-27T19:23:35.959Z,11.30
2019-03-27T19:26:06.003Z,11.30
2019-03-27T19:28:36.137Z,11.30
2019-03-27T19:31:07.345Z,11.30
2019-03-27T19:33:37.390Z,11.20
2019-03-27T19:36:07.715Z,11.20
2019-03-27T19:38:37.917Z,11.20
2019-03-27T19:41:07.941Z,11.10
2019-03-27T19:43:37.969Z,11.10
2019-03-27T19:46:08.022Z,11.10
2019-03-27T19:48:38.041Z,11.00
2019-03-27T19:51:11.151Z,11.00
2019-03-27T19:53:39.787Z,11.00
2019-03-27T19:56:09.837Z,11.00
2019-03-27T19:58:39.650Z,11.00
2019-03-27T20:01:09.565Z,11.00
2019-03-27T20:03:39.394Z,10.90
2019-03-27T20:06:09.115Z,10.80
2019-03-27T20:08:38.958Z,10.80
2019-03-27T20:11:08.841Z,10.70
2019-03-27T20:13:38.661Z,10.70
2019-03-27T20:16:08.501Z,10.70
2019-03-27T20:18:38.366Z,10.70
2019-03-27T20:21:08.655Z,10.60
2019-03-27T20:23:38.808Z,10.60
2019-03-27T20:26:09.001Z,10.60
2019-03-27T20:28:38.974Z,10.60
2019-03-27T20:31:08.800Z,10.50
2019-03-27T20:33:38.642Z,10.50
2019-03-27T20:36:08.450Z,10.50
2019-03-27T20:38:38.257Z,10.40
2019-03-27T20:41:08.112Z,10.20
2019-03-27T20:43:37.915Z,10.00
2019-03-27T20:46:07.706Z,9.80
2019-03-27T20:48:37.964Z,9.60
2019-03-27T20:51:08.136Z,9.60
2019-03-27T20:53:37.999Z,9.60
2019-03-27T20:56:07.809Z,9.60
2019-03-27T20:58:37.668Z,9.70
2019-03-27T21:01:07.498Z,9.60
2019-03-27T21:03:37.326Z,9.60
2019-03-27T21:06:07.115Z,9.60
2019-03-27T21:08:36.946Z,9.50
2019-03-27T21:11:06.725Z,9.50
2019-03-27T21:13:41.006Z,9.40
2019-03-27T21:16:08.035Z,9.40
2019-03-27T21:18:37.846Z,9.30
2019-03-27T21:21:08.821Z,9.20
2019-03-27T21:23:38.674Z,9.10
2019-03-27T21:26:09.827Z,9.00
2019-03-27T21:28:39.813Z,8.80
2019-03-27T21:31:09.609Z,8.70
2019-03-27T21:33:39.348Z,8.50
2019-03-27T21:36:09.147Z,8.40
2019-03-27T21:38:38.894Z,8.30
2019-03-27T21:41:08.612Z,8.20
2019-03-27T21:43:38.437Z,8.20
2019-03-27T21:46:08.177Z,8.00
2019-03-27T21:48:37.920Z,7.90
2019-03-27T21:51:07.646Z,7.90
2019-03-27T21:53:37.433Z,7.90
2019-03-27T21:56:07.192Z,7.80
2019-03-27T21:58:36.925Z,7.70
2019-03-27T22:01:08.200Z,7.70
2019-03-27T22:03:38.022Z,7.60
2019-03-27T22:06:07.784Z,7.60
2019-03-27T22:08:37.509Z,7.50
2019-03-27T22:11:07.293Z,7.50
2019-03-27T22:13:37.060Z,7.50
2019-03-27T22:16:06.842Z,7.50
2019-03-27T22:18:36.632Z,7.40
2019-03-27T22:21:13.326Z,7.50
2019-03-27T22:23:43.060Z,7.40
2019-03-27T22:26:12.829Z,7.50
2019-03-27T22:28:42.613Z,7.40
2019-03-27T22:31:12.335Z,7.30
2019-03-27T22:33:42.187Z,7.20
2019-03-27T22:36:11.980Z,7.10
2019-03-27T22:38:41.677Z,7.00
2019-03-27T22:41:11.618Z,6.80
2019-03-27T22:43:41.398Z,6.70
2019-03-27T22:46:11.197Z,6.70
2019-03-27T22:48:40.973Z,6.90
2019-03-27T22:51:10.774Z,7.00
2019-03-27T22:53:40.532Z,7.10
2019-03-27T22:56:10.296Z,7.20
2019-03-27T22:58:40.051Z,7.20
2019-03-27T23:01:09.851Z,7.30
2019-03-27T23:03:39.635Z,7.40
2019-03-27T23:06:09.424Z,7.30
2019-03-27T23:08:39.198Z,7.30
2019-03-27T23:11:11.660Z,7.20
2019-03-27T23:13:41.449Z,7.00
2019-03-27T23:16:11.143Z,6.90
2019-03-27T23:18:40.937Z,6.80
2019-03-27T23:21:10.754Z,6.60
2019-03-27T23:23:40.529Z,6.40
2019-03-27T23:26:10.342Z,6.50
2019-03-27T23:28:40.159Z,6.60
2019-03-27T23:31:09.859Z,6.60
2019-03-27T23:33:39.625Z,6.70
2019-03-27T23:36:09.662Z,6.70
2019-03-27T23:38:42.900Z,6.70
2019-03-27T23:41:12.721Z,6.70
2019-03-27T23:43:42.484Z,6.70
2019-03-27T23:46:12.272Z,6.80
2019-03-27T23:48:42.033Z,6.80
2019-03-27T23:51:11.745Z,6.80
2019-03-27T23:53:41.459Z,6.80
2019-03-27T23:56:16.734Z,6.70
2019-03-27T23:58:42.721Z,6.70
